sensor_id;sensor_type;location;lat;lon;timestamp;pressure;altitude;pressure_sealevel;temperature;humidity
37200;BME280;23096;50.892;16.746;2023-01-29T00:01:46;100384.15;;;-2.94;81.65
37200;BME280;23096;50.892;16.746;2023-01-29T00:04:12;100385.50;;;-2.94;81.70
37200;BME280;23096;50.892;16.746;2023-01-29T00:06:37;100386.51;;;-2.94;81.59
37200;BME280;23096;50.892;16.746;2023-01-29T00:09:04;100385.86;;;-2.94;81.68
37200;BME280;23096;50.892;16.746;2023-01-29T00:11:29;100382.23;;;-2.92;81.61
37200;BME280;23096;50.892;16.746;2023-01-29T00:13:56;100385.92;;;-2.92;81.59
37200;BME280;23096;50.892;16.746;2023-01-29T00:16:21;100385.39;;;-2.93;81.57
37200;BME280;23096;50.892;16.746;2023-01-29T00:18:47;100386.86;;;-2.94;81.51
37200;BME280;23096;50.892;16.746;2023-01-29T00:21:14;100392.98;;;-2.92;81.58
37200;BME280;23096;50.892;16.746;2023-01-29T00:23:40;100396.05;;;-2.91;81.51
37200;BME280;23096;50.892;16.746;2023-01-29T00:26:05;100392.02;;;-2.90;81.59
37200;BME280;23096;50.892;16.746;2023-01-29T00:28:31;100386.08;;;-2.92;81.51
37200;BME280;23096;50.892;16.746;2023-01-29T00:30:56;100384.05;;;-2.93;81.45
37200;BME280;23096;50.892;16.746;2023-01-29T00:33:21;100378.20;;;-2.92;81.52
37200;BME280;23096;50.892;16.746;2023-01-29T00:35:47;100383.27;;;-2.91;81.54
37200;BME280;23096;50.892;16.746;2023-01-29T00:38:13;100376.66;;;-2.92;81.53
37200;BME280;23096;50.892;16.746;2023-01-29T00:40:38;100372.42;;;-2.93;81.42
37200;BME280;23096;50.892;16.746;2023-01-29T00:43:23;100363.34;;;-2.93;81.51
37200;BME280;23096;50.892;16.746;2023-01-29T00:46:07;100360.20;;;-2.92;81.45
37200;BME280;23096;50.892;16.746;2023-01-29T00:48:33;100354.33;;;-2.91;81.37
37200;BME280;23096;50.892;16.746;2023-01-29T00:50:59;100352.98;;;-2.91;81.37
37200;BME280;23096;50.892;16.746;2023-01-29T00:53:25;100354.40;;;-2.90;81.41
37200;BME280;23096;50.892;16.746;2023-01-29T00:55:51;100351.60;;;-2.88;81.32
37200;BME280;23096;50.892;16.746;2023-01-29T00:58:17;100350.28;;;-2.87;81.39
37200;BME280;23096;50.892;16.746;2023-01-29T01:00:48;100344.65;;;-2.85;81.33
37200;BME280;23096;50.892;16.746;2023-01-29T01:03:14;100332.06;;;-2.84;81.35
37200;BME280;23096;50.892;16.746;2023-01-29T01:05:40;100330.05;;;-2.84;81.37
37200;BME280;23096;50.892;16.746;2023-01-29T01:08:07;100328.63;;;-2.82;81.27
37200;BME280;23096;50.892;16.746;2023-01-29T01:11:03;100322.74;;;-2.82;81.20
37200;BME280;23096;50.892;16.746;2023-01-29T01:13:30;100321.70;;;-2.82;81.25
37200;BME280;23096;50.892;16.746;2023-01-29T01:15:55;100322.55;;;-2.82;81.24
37200;BME280;23096;50.892;16.746;2023-01-29T01:18:21;100323.86;;;-2.83;81.21
37200;BME280;23096;50.892;16.746;2023-01-29T01:20:47;100323.83;;;-2.84;81.17
37200;BME280;23096;50.892;16.746;2023-01-29T01:23:19;100317.06;;;-2.85;81.33
37200;BME280;23096;50.892;16.746;2023-01-29T01:25:44;100306.30;;;-2.85;81.22
37200;BME280;23096;50.892;16.746;2023-01-29T01:28:10;100302.75;;;-2.85;81.19
37200;BME280;23096;50.892;16.746;2023-01-29T01:30:36;100299.63;;;-2.88;81.23
37200;BME280;23096;50.892;16.746;2023-01-29T01:33:01;100297.45;;;-2.88;81.16
37200;BME280;23096;50.892;16.746;2023-01-29T01:35:27;100302.05;;;-2.91;81.06
37200;BME280;23096;50.892;16.746;2023-01-29T01:37:53;100313.64;;;-2.91;81.06
37200;BME280;23096;50.892;16.746;2023-01-29T01:40:20;100315.11;;;-2.92;81.07
37200;BME280;23096;50.892;16.746;2023-01-29T01:42:49;100315.46;;;-2.91;81.00
37200;BME280;23096;50.892;16.746;2023-01-29T01:45:20;100318.16;;;-2.92;81.05
37200;BME280;23096;50.892;16.746;2023-01-29T01:47:47;100309.92;;;-2.91;81.04
37200;BME280;23096;50.892;16.746;2023-01-29T01:50:14;100315.52;;;-2.91;81.01
37200;BME280;23096;50.892;16.746;2023-01-29T01:52:41;100320.77;;;-2.90;81.00
37200;BME280;23096;50.892;16.746;2023-01-29T01:55:09;100321.84;;;-2.88;81.00
37200;BME280;23096;50.892;16.746;2023-01-29T01:57:37;100317.83;;;-2.86;81.12
37200;BME280;23096;50.892;16.746;2023-01-29T02:00:09;100317.72;;;-2.85;80.98
37200;BME280;23096;50.892;16.746;2023-01-29T02:02:41;100315.41;;;-2.85;80.99
37200;BME280;23096;50.892;16.746;2023-01-29T02:05:26;100313.42;;;-2.83;80.90
37200;BME280;23096;50.892;16.746;2023-01-29T02:08:11;100310.89;;;-2.83;80.93
37200;BME280;23096;50.892;16.746;2023-01-29T02:10:56;100304.32;;;-2.84;80.96
37200;BME280;23096;50.892;16.746;2023-01-29T02:13:22;100298.45;;;-2.84;80.87
37200;BME280;23096;50.892;16.746;2023-01-29T02:15:48;100296.93;;;-2.84;80.95
37200;BME280;23096;50.892;16.746;2023-01-29T02:18:18;100295.20;;;-2.85;80.84
37200;BME280;23096;50.892;16.746;2023-01-29T02:20:48;100301.41;;;-2.85;80.77
37200;BME280;23096;50.892;16.746;2023-01-29T02:35:56;100319.57;;;-2.81;80.75
37200;BME280;23096;50.892;16.746;2023-01-29T02:41:00;100317.83;;;-2.82;80.71
37200;BME280;23096;50.892;16.746;2023-01-29T02:43:49;100317.66;;;-2.82;80.65
37200;BME280;23096;50.892;16.746;2023-01-29T02:51:29;100316.33;;;-2.82;80.74
37200;BME280;23096;50.892;16.746;2023-01-29T02:53:58;100316.91;;;-2.80;80.74
37200;BME280;23096;50.892;16.746;2023-01-29T02:56:26;100320.29;;;-2.80;80.62
37200;BME280;23096;50.892;16.746;2023-01-29T02:59:00;100326.38;;;-2.79;80.69
37200;BME280;23096;50.892;16.746;2023-01-29T03:01:31;100329.13;;;-2.78;80.63
37200;BME280;23096;50.892;16.746;2023-01-29T03:04:00;100322.36;;;-2.79;80.56
37200;BME280;23096;50.892;16.746;2023-01-29T03:06:37;100317.84;;;-2.78;80.63
37200;BME280;23096;50.892;16.746;2023-01-29T03:09:06;100311.97;;;-2.78;80.55
37200;BME280;23096;50.892;16.746;2023-01-29T03:11:35;100313.46;;;-2.78;80.71
37200;BME280;23096;50.892;16.746;2023-01-29T03:14:06;100316.88;;;-2.77;80.72
37200;BME280;23096;50.892;16.746;2023-01-29T03:16:38;100317.74;;;-2.76;80.57
37200;BME280;23096;50.892;16.746;2023-01-29T03:19:06;100312.36;;;-2.76;80.52
37200;BME280;23096;50.892;16.746;2023-01-29T03:21:33;100317.84;;;-2.78;80.46
37200;BME280;23096;50.892;16.746;2023-01-29T03:24:44;100317.49;;;-2.78;80.50
37200;BME280;23096;50.892;16.746;2023-01-29T03:27:29;100316.60;;;-2.75;80.56
37200;BME280;23096;50.892;16.746;2023-01-29T03:30:15;100308.77;;;-2.74;80.56
37200;BME280;23096;50.892;16.746;2023-01-29T03:33:26;100303.65;;;-2.71;80.52
37200;BME280;23096;50.892;16.746;2023-01-29T03:36:08;100303.84;;;-2.71;80.50
37200;BME280;23096;50.892;16.746;2023-01-29T03:38:35;100308.70;;;-2.71;80.51
37200;BME280;23096;50.892;16.746;2023-01-29T03:46:13;100314.02;;;-2.77;80.45
37200;BME280;23096;50.892;16.746;2023-01-29T03:48:50;100305.95;;;-2.81;80.46
37200;BME280;23096;50.892;16.746;2023-01-29T03:51:27;100303.30;;;-2.84;80.54
37200;BME280;23096;50.892;16.746;2023-01-29T04:01:53;100288.52;;;-2.88;80.47
37200;BME280;23096;50.892;16.746;2023-01-29T04:04:29;100294.64;;;-2.91;80.51
37200;BME280;23096;50.892;16.746;2023-01-29T04:06:56;100290.02;;;-2.93;80.37
37200;BME280;23096;50.892;16.746;2023-01-29T04:09:39;100291.33;;;-2.94;80.42
37200;BME280;23096;50.892;16.746;2023-01-29T04:12:08;100292.36;;;-2.94;80.45
37200;BME280;23096;50.892;16.746;2023-01-29T04:14:37;100290.15;;;-2.94;80.43
37200;BME280;23096;50.892;16.746;2023-01-29T04:17:26;100283.14;;;-2.97;80.39
37200;BME280;23096;50.892;16.746;2023-01-29T04:20:08;100279.35;;;-2.99;80.35
37200;BME280;23096;50.892;16.746;2023-01-29T04:22:35;100279.45;;;-3.01;80.27
37200;BME280;23096;50.892;16.746;2023-01-29T04:25:02;100278.59;;;-3.01;80.23
37200;BME280;23096;50.892;16.746;2023-01-29T04:31:01;100279.73;;;-2.98;80.15
37200;BME280;23096;50.892;16.746;2023-01-29T04:41:10;100267.73;;;-2.95;80.16
37200;BME280;23096;50.892;16.746;2023-01-29T04:46:14;100263.43;;;-2.98;80.06
37200;BME280;23096;50.892;16.746;2023-01-29T04:48:44;100255.27;;;-3.00;79.89
37200;BME280;23096;50.892;16.746;2023-01-29T04:51:18;100250.45;;;-3.03;79.99
37200;BME280;23096;50.892;16.746;2023-01-29T04:54:05;100244.52;;;-3.04;79.98
37200;BME280;23096;50.892;16.746;2023-01-29T04:56:40;100243.61;;;-3.06;79.92
37200;BME280;23096;50.892;16.746;2023-01-29T04:59:11;100240.05;;;-3.07;79.93
37200;BME280;23096;50.892;16.746;2023-01-29T05:01:38;100236.73;;;-3.05;79.95
37200;BME280;23096;50.892;16.746;2023-01-29T05:04:05;100233.86;;;-3.06;79.95
37200;BME280;23096;50.892;16.746;2023-01-29T05:06:33;100236.23;;;-3.05;79.95
37200;BME280;23096;50.892;16.746;2023-01-29T05:12:01;100231.02;;;-3.05;79.89
37200;BME280;23096;50.892;16.746;2023-01-29T05:14:29;100230.85;;;-3.05;79.92
37200;BME280;23096;50.892;16.746;2023-01-29T05:16:58;100230.44;;;-3.08;79.78
37200;BME280;23096;50.892;16.746;2023-01-29T05:19:26;100231.98;;;-3.11;79.74
37200;BME280;23096;50.892;16.746;2023-01-29T05:21:51;100228.89;;;-3.13;79.76
37200;BME280;23096;50.892;16.746;2023-01-29T05:24:21;100224.21;;;-3.12;79.83
37200;BME280;23096;50.892;16.746;2023-01-29T05:26:47;100220.29;;;-3.09;79.77
37200;BME280;23096;50.892;16.746;2023-01-29T05:29:32;100220.85;;;-3.08;79.78
37200;BME280;23096;50.892;16.746;2023-01-29T05:31:57;100215.02;;;-3.06;79.80
37200;BME280;23096;50.892;16.746;2023-01-29T05:34:22;100206.39;;;-3.03;79.81
37200;BME280;23096;50.892;16.746;2023-01-29T05:36:48;100207.27;;;-3.02;79.75
37200;BME280;23096;50.892;16.746;2023-01-29T05:39:14;100214.73;;;-3.05;79.67
37200;BME280;23096;50.892;16.746;2023-01-29T05:41:39;100216.10;;;-3.04;79.65
37200;BME280;23096;50.892;16.746;2023-01-29T05:44:04;100208.23;;;-3.04;79.72
37200;BME280;23096;50.892;16.746;2023-01-29T05:46:30;100204.77;;;-3.06;79.55
37200;BME280;23096;50.892;16.746;2023-01-29T05:48:55;100203.67;;;-3.13;79.49
37200;BME280;23096;50.892;16.746;2023-01-29T05:51:21;100207.41;;;-3.16;79.59
37200;BME280;23096;50.892;16.746;2023-01-29T05:53:46;100207.45;;;-3.19;79.60
37200;BME280;23096;50.892;16.746;2023-01-29T05:56:11;100209.05;;;-3.21;79.52
37200;BME280;23096;50.892;16.746;2023-01-29T05:58:37;100209.22;;;-3.21;79.58
37200;BME280;23096;50.892;16.746;2023-01-29T06:01:10;100217.08;;;-3.23;79.47
37200;BME280;23096;50.892;16.746;2023-01-29T06:03:35;100209.73;;;-3.26;79.53
37200;BME280;23096;50.892;16.746;2023-01-29T06:06:01;100203.49;;;-3.26;79.52
37200;BME280;23096;50.892;16.746;2023-01-29T06:08:26;100198.89;;;-3.28;79.38
37200;BME280;23096;50.892;16.746;2023-01-29T06:10:52;100206.45;;;-3.28;79.48
37200;BME280;23096;50.892;16.746;2023-01-29T06:13:17;100204.21;;;-3.29;79.47
37200;BME280;23096;50.892;16.746;2023-01-29T06:15:43;100204.70;;;-3.30;79.36
37200;BME280;23096;50.892;16.746;2023-01-29T06:18:08;100201.80;;;-3.31;79.38
37200;BME280;23096;50.892;16.746;2023-01-29T06:20:33;100204.05;;;-3.34;79.24
37200;BME280;23096;50.892;16.746;2023-01-29T06:22:59;100203.05;;;-3.37;79.25
37200;BME280;23096;50.892;16.746;2023-01-29T06:25:24;100211.99;;;-3.37;79.27
37200;BME280;23096;50.892;16.746;2023-01-29T06:27:50;100215.23;;;-3.36;79.26
37200;BME280;23096;50.892;16.746;2023-01-29T06:30:15;100213.77;;;-3.35;79.29
37200;BME280;23096;50.892;16.746;2023-01-29T06:32:41;100215.81;;;-3.34;79.18
37200;BME280;23096;50.892;16.746;2023-01-29T06:35:06;100219.60;;;-3.35;79.12
37200;BME280;23096;50.892;16.746;2023-01-29T06:37:33;100222.49;;;-3.39;79.14
37200;BME280;23096;50.892;16.746;2023-01-29T06:39:59;100223.71;;;-3.42;79.15
37200;BME280;23096;50.892;16.746;2023-01-29T06:42:25;100230.33;;;-3.44;79.08
37200;BME280;23096;50.892;16.746;2023-01-29T06:44:55;100234.66;;;-3.46;78.97
37200;BME280;23096;50.892;16.746;2023-01-29T06:47:21;100234.77;;;-3.47;79.02
37200;BME280;23096;50.892;16.746;2023-01-29T06:49:46;100233.77;;;-3.51;78.85
37200;BME280;23096;50.892;16.746;2023-01-29T06:52:11;100237.27;;;-3.56;78.84
37200;BME280;23096;50.892;16.746;2023-01-29T06:54:37;100245.13;;;-3.57;78.88
37200;BME280;23096;50.892;16.746;2023-01-29T06:57:02;100250.14;;;-3.57;78.92
37200;BME280;23096;50.892;16.746;2023-01-29T06:59:28;100251.40;;;-3.59;78.87
37200;BME280;23096;50.892;16.746;2023-01-29T07:01:53;100251.54;;;-3.60;78.81
37200;BME280;23096;50.892;16.746;2023-01-29T07:04:18;100253.98;;;-3.62;78.77
37200;BME280;23096;50.892;16.746;2023-01-29T07:06:44;100254.34;;;-3.65;78.75
37200;BME280;23096;50.892;16.746;2023-01-29T07:09:12;100266.11;;;-3.66;78.76
37200;BME280;23096;50.892;16.746;2023-01-29T07:11:41;100272.73;;;-3.68;78.71
37200;BME280;23096;50.892;16.746;2023-01-29T07:14:06;100277.89;;;-3.69;78.69
37200;BME280;23096;50.892;16.746;2023-01-29T07:16:32;100274.48;;;-3.70;78.63
37200;BME280;23096;50.892;16.746;2023-01-29T07:18:58;100279.99;;;-3.71;78.63
37200;BME280;23096;50.892;16.746;2023-01-29T07:21:23;100280.69;;;-3.70;78.68
37200;BME280;23096;50.892;16.746;2023-01-29T07:23:49;100286.64;;;-3.69;78.62
37200;BME280;23096;50.892;16.746;2023-01-29T07:26:14;100278.11;;;-3.68;78.60
37200;BME280;23096;50.892;16.746;2023-01-29T07:28:40;100272.02;;;-3.64;78.67
37200;BME280;23096;50.892;16.746;2023-01-29T07:31:06;100273.52;;;-3.61;78.62
37200;BME280;23096;50.892;16.746;2023-01-29T07:33:32;100268.24;;;-3.58;78.60
37200;BME280;23096;50.892;16.746;2023-01-29T07:35:57;100273.81;;;-3.57;78.67
37200;BME280;23096;50.892;16.746;2023-01-29T07:38:23;100281.56;;;-3.57;78.60
37200;BME280;23096;50.892;16.746;2023-01-29T07:40:50;100275.21;;;-3.56;78.61
37200;BME280;23096;50.892;16.746;2023-01-29T07:43:15;100268.61;;;-3.54;78.60
37200;BME280;23096;50.892;16.746;2023-01-29T07:45:41;100255.54;;;-3.53;78.53
37200;BME280;23096;50.892;16.746;2023-01-29T07:48:08;100254.98;;;-3.51;78.55
37200;BME280;23096;50.892;16.746;2023-01-29T07:50:34;100250.83;;;-3.49;78.62
37200;BME280;23096;50.892;16.746;2023-01-29T07:53:00;100241.29;;;-3.48;78.55
37200;BME280;23096;50.892;16.746;2023-01-29T07:55:26;100237.84;;;-3.46;78.53
37200;BME280;23096;50.892;16.746;2023-01-29T07:57:55;100244.84;;;-3.43;78.55
37200;BME280;23096;50.892;16.746;2023-01-29T08:00:20;100254.23;;;-3.39;78.42
37200;BME280;23096;50.892;16.746;2023-01-29T08:02:46;100260.88;;;-3.37;78.45
37200;BME280;23096;50.892;16.746;2023-01-29T08:05:11;100267.55;;;-3.34;78.50
37200;BME280;23096;50.892;16.746;2023-01-29T08:07:37;100253.70;;;-3.31;78.47
37200;BME280;23096;50.892;16.746;2023-01-29T08:10:02;100244.39;;;-3.30;78.39
37200;BME280;23096;50.892;16.746;2023-01-29T08:12:28;100236.05;;;-3.28;78.48
37200;BME280;23096;50.892;16.746;2023-01-29T08:14:53;100224.43;;;-3.24;78.51
37200;BME280;23096;50.892;16.746;2023-01-29T08:17:19;100222.51;;;-3.21;78.42
37200;BME280;23096;50.892;16.746;2023-01-29T08:19:44;100224.17;;;-3.17;78.45
37200;BME280;23096;50.892;16.746;2023-01-29T08:22:09;100225.52;;;-3.13;78.37
37200;BME280;23096;50.892;16.746;2023-01-29T08:24:35;100224.31;;;-3.10;78.30
37200;BME280;23096;50.892;16.746;2023-01-29T08:27:00;100229.77;;;-3.07;78.32
37200;BME280;23096;50.892;16.746;2023-01-29T08:29:26;100229.52;;;-3.05;78.29
37200;BME280;23096;50.892;16.746;2023-01-29T08:31:51;100224.34;;;-3.04;78.32
37200;BME280;23096;50.892;16.746;2023-01-29T08:34:16;100220.07;;;-3.01;78.27
37200;BME280;23096;50.892;16.746;2023-01-29T08:36:42;100210.92;;;-2.99;78.24
37200;BME280;23096;50.892;16.746;2023-01-29T08:39:07;100211.66;;;-2.97;78.31
37200;BME280;23096;50.892;16.746;2023-01-29T08:41:32;100208.05;;;-2.95;78.27
37200;BME280;23096;50.892;16.746;2023-01-29T08:43:58;100201.11;;;-2.92;78.23
37200;BME280;23096;50.892;16.746;2023-01-29T08:46:25;100192.61;;;-2.90;78.24
37200;BME280;23096;50.892;16.746;2023-01-29T08:48:51;100188.38;;;-2.86;78.40
37200;BME280;23096;50.892;16.746;2023-01-29T08:51:16;100177.42;;;-2.82;78.34
37200;BME280;23096;50.892;16.746;2023-01-29T08:53:41;100168.13;;;-2.74;78.43
37200;BME280;23096;50.892;16.746;2023-01-29T08:56:07;100167.36;;;-2.63;78.52
37200;BME280;23096;50.892;16.746;2023-01-29T08:58:32;100161.23;;;-2.55;78.46
37200;BME280;23096;50.892;16.746;2023-01-29T09:01:11;100155.91;;;-2.44;78.63
37200;BME280;23096;50.892;16.746;2023-01-29T09:03:36;100154.41;;;-2.34;78.60
37200;BME280;23096;50.892;16.746;2023-01-29T09:06:05;100152.85;;;-2.25;78.62
37200;BME280;23096;50.892;16.746;2023-01-29T09:08:31;100155.78;;;-2.13;78.67
37200;BME280;23096;50.892;16.746;2023-01-29T09:10:57;100153.08;;;-2.03;78.56
37200;BME280;23096;50.892;16.746;2023-01-29T09:13:23;100154.87;;;-1.95;78.66
37200;BME280;23096;50.892;16.746;2023-01-29T09:15:50;100154.94;;;-1.83;78.90
37200;BME280;23096;50.892;16.746;2023-01-29T09:18:15;100156.17;;;-1.75;78.74
37200;BME280;23096;50.892;16.746;2023-01-29T09:20:41;100150.74;;;-1.71;78.67
37200;BME280;23096;50.892;16.746;2023-01-29T09:23:07;100152.86;;;-1.68;78.66
37200;BME280;23096;50.892;16.746;2023-01-29T09:25:33;100159.23;;;-1.64;78.62
37200;BME280;23096;50.892;16.746;2023-01-29T09:27:58;100160.19;;;-1.60;78.60
37200;BME280;23096;50.892;16.746;2023-01-29T09:30:24;100161.60;;;-1.59;78.64
37200;BME280;23096;50.892;16.746;2023-01-29T09:32:49;100163.14;;;-1.58;78.56
37200;BME280;23096;50.892;16.746;2023-01-29T09:35:15;100158.16;;;-1.56;78.58
37200;BME280;23096;50.892;16.746;2023-01-29T09:37:40;100156.05;;;-1.52;78.59
37200;BME280;23096;50.892;16.746;2023-01-29T09:40:06;100158.96;;;-1.51;78.50
37200;BME280;23096;50.892;16.746;2023-01-29T09:42:40;100166.21;;;-1.51;78.51
37200;BME280;23096;50.892;16.746;2023-01-29T09:47:33;100162.86;;;-1.50;78.43
37200;BME280;23096;50.892;16.746;2023-01-29T09:50:07;100159.50;;;-1.50;78.50
37200;BME280;23096;50.892;16.746;2023-01-29T09:52:55;100156.15;;;-1.50;78.53
37200;BME280;23096;50.892;16.746;2023-01-29T09:55:26;100142.48;;;-1.45;78.51
37200;BME280;23096;50.892;16.746;2023-01-29T09:57:59;100136.41;;;-1.39;78.60
37200;BME280;23096;50.892;16.746;2023-01-29T10:00:33;100131.34;;;-1.34;78.68
37200;BME280;23096;50.892;16.746;2023-01-29T10:03:06;100121.08;;;-1.28;78.72
37200;BME280;23096;50.892;16.746;2023-01-29T10:08:35;100116.15;;;-1.17;78.70
37200;BME280;23096;50.892;16.746;2023-01-29T10:11:08;100105.71;;;-1.11;78.73
37200;BME280;23096;50.892;16.746;2023-01-29T10:13:55;100095.71;;;-1.06;78.75
37200;BME280;23096;50.892;16.746;2023-01-29T10:24:01;100071.38;;;-0.97;78.66
37200;BME280;23096;50.892;16.746;2023-01-29T10:26:31;100066.05;;;-0.94;78.61
37200;BME280;23096;50.892;16.746;2023-01-29T10:28:59;100065.77;;;-0.92;78.58
37200;BME280;23096;50.892;16.746;2023-01-29T10:33:55;100065.91;;;-0.86;78.56
37200;BME280;23096;50.892;16.746;2023-01-29T10:36:24;100061.11;;;-0.83;78.67
37200;BME280;23096;50.892;16.746;2023-01-29T10:38:50;100056.00;;;-0.79;78.62
37200;BME280;23096;50.892;16.746;2023-01-29T10:43:50;100054.63;;;-0.67;78.65
37200;BME280;23096;50.892;16.746;2023-01-29T10:51:49;100050.56;;;-0.54;78.56
37200;BME280;23096;50.892;16.746;2023-01-29T10:57:07;100053.45;;;-0.47;78.60
37200;BME280;23096;50.892;16.746;2023-01-29T11:01:57;100047.82;;;-0.43;78.40
37200;BME280;23096;50.892;16.746;2023-01-29T11:04:23;100041.77;;;-0.42;78.28
37200;BME280;23096;50.892;16.746;2023-01-29T11:06:49;100041.63;;;-0.41;78.48
37200;BME280;23096;50.892;16.746;2023-01-29T11:09:35;100038.19;;;-0.43;78.34
37200;BME280;23096;50.892;16.746;2023-01-29T11:12:04;100028.71;;;-0.44;78.40
37200;BME280;23096;50.892;16.746;2023-01-29T11:14:47;100025.36;;;-0.43;78.38
37200;BME280;23096;50.892;16.746;2023-01-29T11:17:22;100024.05;;;-0.42;78.45
37200;BME280;23096;50.892;16.746;2023-01-29T11:19:48;100022.95;;;-0.39;78.40
37200;BME280;23096;50.892;16.746;2023-01-29T11:22:18;100023.05;;;-0.34;78.34
37200;BME280;23096;50.892;16.746;2023-01-29T11:24:44;100013.35;;;-0.31;78.14
37200;BME280;23096;50.892;16.746;2023-01-29T11:27:22;100015.95;;;-0.27;78.29
37200;BME280;23096;50.892;16.746;2023-01-29T11:29:50;100009.65;;;-0.23;78.27
37200;BME280;23096;50.892;16.746;2023-01-29T11:37:46;100001.74;;;-0.07;78.33
37200;BME280;23096;50.892;16.746;2023-01-29T11:42:43;99995.50;;;0.01;78.24
37200;BME280;23096;50.892;16.746;2023-01-29T11:47:51;99987.43;;;0.02;78.10
37200;BME280;23096;50.892;16.746;2023-01-29T11:50:25;99985.06;;;0.03;77.98
37200;BME280;23096;50.892;16.746;2023-01-29T11:52:51;99973.36;;;0.00;77.90
37200;BME280;23096;50.892;16.746;2023-01-29T11:55:21;99968.27;;;-0.01;78.08
37200;BME280;23096;50.892;16.746;2023-01-29T11:57:48;99965.91;;;0.00;78.08
37200;BME280;23096;50.892;16.746;2023-01-29T12:00:22;99964.59;;;0.01;78.06
37200;BME280;23096;50.892;16.746;2023-01-29T12:05:23;99971.52;;;0.02;77.99
37200;BME280;23096;50.892;16.746;2023-01-29T12:07:50;99974.41;;;0.02;77.95
37200;BME280;23096;50.892;16.746;2023-01-29T12:10:36;99973.21;;;0.02;77.91
37200;BME280;23096;50.892;16.746;2023-01-29T12:13:24;99973.56;;;0.02;77.94
37200;BME280;23096;50.892;16.746;2023-01-29T12:16:03;99966.65;;;0.02;78.02
37200;BME280;23096;50.892;16.746;2023-01-29T12:21:02;99954.46;;;0.02;77.83
37200;BME280;23096;50.892;16.746;2023-01-29T12:26:00;99945.02;;;0.02;77.92
37200;BME280;23096;50.892;16.746;2023-01-29T12:35:54;99924.30;;;0.04;77.96
37200;BME280;23096;50.892;16.746;2023-01-29T12:38:23;99921.24;;;0.04;77.87
37200;BME280;23096;50.892;16.746;2023-01-29T12:40:54;99913.66;;;0.05;77.93
37200;BME280;23096;50.892;16.746;2023-01-29T12:43:26;99909.63;;;0.06;77.98
37200;BME280;23096;50.892;16.746;2023-01-29T12:45:54;99904.90;;;0.06;77.95
37200;BME280;23096;50.892;16.746;2023-01-29T12:48:26;99906.27;;;0.07;77.93
37200;BME280;23096;50.892;16.746;2023-01-29T12:50:54;99906.48;;;0.09;77.89
37200;BME280;23096;50.892;16.746;2023-01-29T12:53:27;99900.79;;;0.11;78.06
37200;BME280;23096;50.892;16.746;2023-01-29T12:55:56;99898.27;;;0.13;78.05
37200;BME280;23096;50.892;16.746;2023-01-29T12:58:28;99895.27;;;0.14;77.92
37200;BME280;23096;50.892;16.746;2023-01-29T13:00:56;99891.25;;;0.16;77.95
37200;BME280;23096;50.892;16.746;2023-01-29T13:06:05;99887.88;;;0.16;77.96
37200;BME280;23096;50.892;16.746;2023-01-29T13:11:01;99878.29;;;0.18;77.88
37200;BME280;23096;50.892;16.746;2023-01-29T13:13:32;99872.92;;;0.21;78.07
37200;BME280;23096;50.892;16.746;2023-01-29T13:16:00;99870.60;;;0.23;77.95
37200;BME280;23096;50.892;16.746;2023-01-29T13:20:56;99862.26;;;0.28;77.89
37200;BME280;23096;50.892;16.746;2023-01-29T13:25:57;99872.77;;;0.30;78.03
37200;BME280;23096;50.892;16.746;2023-01-29T13:28:23;99875.13;;;0.30;77.78
37200;BME280;23096;50.892;16.746;2023-01-29T13:31:10;99878.82;;;0.29;77.82
37200;BME280;23096;50.892;16.746;2023-01-29T13:33:37;99871.71;;;0.28;77.82
37200;BME280;23096;50.892;16.746;2023-01-29T13:36:05;99869.67;;;0.27;77.75
37200;BME280;23096;50.892;16.746;2023-01-29T13:38:35;99867.52;;;0.29;77.78
37200;BME280;23096;50.892;16.746;2023-01-29T13:41:04;99873.45;;;0.31;77.72
37200;BME280;23096;50.892;16.746;2023-01-29T13:43:36;99867.72;;;0.32;77.88
37200;BME280;23096;50.892;16.746;2023-01-29T13:46:06;99863.04;;;0.34;77.80
37200;BME280;23096;50.892;16.746;2023-01-29T13:48:33;99861.73;;;0.37;77.79
37200;BME280;23096;50.892;16.746;2023-01-29T13:51:08;99862.65;;;0.41;77.85
37200;BME280;23096;50.892;16.746;2023-01-29T13:53:39;99861.70;;;0.44;77.84
37200;BME280;23096;50.892;16.746;2023-01-29T13:58:53;99850.16;;;0.50;77.82
37200;BME280;23096;50.892;16.746;2023-01-29T14:04:14;99848.23;;;0.56;77.96
37200;BME280;23096;50.892;16.746;2023-01-29T14:06:56;99849.26;;;0.56;77.79
37200;BME280;23096;50.892;16.746;2023-01-29T14:09:33;99851.42;;;0.54;77.83
37200;BME280;23096;50.892;16.746;2023-01-29T14:11:59;99842.59;;;0.52;77.71
37200;BME280;23096;50.892;16.746;2023-01-29T14:17:09;99842.42;;;0.43;77.57
37200;BME280;23096;50.892;16.746;2023-01-29T14:19:34;99845.20;;;0.39;77.54
37200;BME280;23096;50.892;16.746;2023-01-29T14:22:00;99843.60;;;0.34;77.46
37200;BME280;23096;50.892;16.746;2023-01-29T14:24:27;99846.23;;;0.30;77.59
37200;BME280;23096;50.892;16.746;2023-01-29T14:26:54;99842.98;;;0.27;77.58
37200;BME280;23096;50.892;16.746;2023-01-29T14:29:24;99843.23;;;0.23;77.53
37200;BME280;23096;50.892;16.746;2023-01-29T14:32:07;99840.30;;;0.20;77.47
37200;BME280;23096;50.892;16.746;2023-01-29T14:34:41;99833.65;;;0.17;77.34
37200;BME280;23096;50.892;16.746;2023-01-29T14:44:56;99851.55;;;0.09;77.51
37200;BME280;23096;50.892;16.746;2023-01-29T14:49:57;99850.52;;;0.07;77.47
37200;BME280;23096;50.892;16.746;2023-01-29T14:52:39;99847.64;;;0.07;77.50
37200;BME280;23096;50.892;16.746;2023-01-29T14:55:18;99845.64;;;0.08;77.44
37200;BME280;23096;50.892;16.746;2023-01-29T14:57:49;99844.09;;;0.07;77.37
37200;BME280;23096;50.892;16.746;2023-01-29T15:00:16;99847.95;;;0.06;77.42
37200;BME280;23096;50.892;16.746;2023-01-29T15:02:46;99841.18;;;0.05;77.43
37200;BME280;23096;50.892;16.746;2023-01-29T15:05:23;99839.13;;;0.04;77.48
37200;BME280;23096;50.892;16.746;2023-01-29T15:10:41;99835.71;;;0.02;77.32